sensor_id;sensor_type;location;lat;lon;timestamp;P1;durP1;ratioP1;P2;durP2;ratioP2
1885;SDS011;943;51.568;6.998;2022-11-15T00:01:29;13.50;;;9.83;;
1885;SDS011;943;51.568;6.998;2022-11-15T00:04:15;13.73;;;10.40;;
1885;SDS011;943;51.568;6.998;2022-11-15T00:07:02;13.83;;;9.33;;
1885;SDS011;943;51.568;6.998;2022-11-15T00:09:48;15.83;;;10.13;;
1885;SDS011;943;51.568;6.998;2022-11-15T00:12:37;16.00;;;10.80;;
1885;SDS011;943;51.568;6.998;2022-11-15T00:15:24;13.33;;;10.40;;
1885;SDS011;943;51.568;6.998;2022-11-15T00:18:14;15.27;;;10.70;;
1885;SDS011;943;51.568;6.998;2022-11-15T00:21:07;15.03;;;11.00;;
1885;SDS011;943;51.568;6.998;2022-11-15T00:23:58;18.03;;;11.43;;
1885;SDS011;943;51.568;6.998;2022-11-15T00:26:45;13.53;;;10.83;;
1885;SDS011;943;51.568;6.998;2022-11-15T00:29:31;14.50;;;10.13;;
1885;SDS011;943;51.568;6.998;2022-11-15T00:32:18;13.70;;;10.67;;
1885;SDS011;943;51.568;6.998;2022-11-15T00:35:04;16.40;;;11.40;;
1885;SDS011;943;51.568;6.998;2022-11-15T00:37:51;12.40;;;9.57;;
1885;SDS011;943;51.568;6.998;2022-11-15T00:40:38;16.23;;;10.50;;
1885;SDS011;943;51.568;6.998;2022-11-15T00:43:25;11.53;;;8.97;;
1885;SDS011;943;51.568;6.998;2022-11-15T00:46:11;15.17;;;9.50;;
1885;SDS011;943;51.568;6.998;2022-11-15T00:48:57;12.27;;;9.63;;
1885;SDS011;943;51.568;6.998;2022-11-15T00:51:44;14.80;;;9.57;;
1885;SDS011;943;51.568;6.998;2022-11-15T00:54:30;12.73;;;10.13;;
1885;SDS011;943;51.568;6.998;2022-11-15T00:57:16;13.17;;;9.73;;
1885;SDS011;943;51.568;6.998;2022-11-15T01:00:03;11.50;;;9.20;;
1885;SDS011;943;51.568;6.998;2022-11-15T01:02:52;10.77;;;8.37;;
1885;SDS011;943;51.568;6.998;2022-11-15T01:05:40;12.60;;;9.53;;
1885;SDS011;943;51.568;6.998;2022-11-15T01:08:26;13.50;;;9.63;;
1885;SDS011;943;51.568;6.998;2022-11-15T01:11:12;12.80;;;9.70;;
1885;SDS011;943;51.568;6.998;2022-11-15T01:13:59;13.30;;;10.50;;
1885;SDS011;943;51.568;6.998;2022-11-15T01:16:47;12.80;;;8.93;;
1885;SDS011;943;51.568;6.998;2022-11-15T01:19:33;14.90;;;9.33;;
1885;SDS011;943;51.568;6.998;2022-11-15T01:22:19;14.93;;;9.10;;
1885;SDS011;943;51.568;6.998;2022-11-15T01:25:06;12.87;;;9.37;;
1885;SDS011;943;51.568;6.998;2022-11-15T01:27:53;12.97;;;8.83;;
1885;SDS011;943;51.568;6.998;2022-11-15T01:30:39;12.33;;;9.13;;
1885;SDS011;943;51.568;6.998;2022-11-15T01:33:25;13.53;;;9.13;;
1885;SDS011;943;51.568;6.998;2022-11-15T01:36:15;13.20;;;9.10;;
1885;SDS011;943;51.568;6.998;2022-11-15T01:39:14;11.50;;;9.03;;
1885;SDS011;943;51.568;6.998;2022-11-15T01:42:00;12.13;;;9.07;;
1885;SDS011;943;51.568;6.998;2022-11-15T01:44:49;11.07;;;8.53;;
1885;SDS011;943;51.568;6.998;2022-11-15T01:47:40;15.07;;;9.53;;
1885;SDS011;943;51.568;6.998;2022-11-15T01:50:39;11.20;;;7.90;;
1885;SDS011;943;51.568;6.998;2022-11-15T01:53:25;9.77;;;7.37;;
1885;SDS011;943;51.568;6.998;2022-11-15T01:56:18;21.57;;;10.57;;
1885;SDS011;943;51.568;6.998;2022-11-15T01:59:14;17.03;;;8.53;;
1885;SDS011;943;51.568;6.998;2022-11-15T02:02:06;10.17;;;8.60;;
1885;SDS011;943;51.568;6.998;2022-11-15T02:04:53;13.30;;;9.47;;
1885;SDS011;943;51.568;6.998;2022-11-15T02:07:43;9.80;;;7.70;;
1885;SDS011;943;51.568;6.998;2022-11-15T02:10:32;10.03;;;8.10;;
1885;SDS011;943;51.568;6.998;2022-11-15T02:13:19;9.03;;;7.60;;
1885;SDS011;943;51.568;6.998;2022-11-15T02:30:42;13.00;;;8.07;;
1885;SDS011;943;51.568;6.998;2022-11-15T02:34:00;9.07;;;7.20;;
1885;SDS011;943;51.568;6.998;2022-11-15T02:37:39;9.43;;;7.80;;
1885;SDS011;943;51.568;6.998;2022-11-15T02:40:43;8.73;;;5.93;;
1885;SDS011;943;51.568;6.998;2022-11-15T02:47:08;11.43;;;6.97;;
1885;SDS011;943;51.568;6.998;2022-11-15T02:50:05;9.47;;;6.87;;
1885;SDS011;943;51.568;6.998;2022-11-15T02:52:59;12.40;;;7.03;;
1885;SDS011;943;51.568;6.998;2022-11-15T02:55:46;9.20;;;7.10;;
1885;SDS011;943;51.568;6.998;2022-11-15T03:08:32;11.13;;;7.17;;
1885;SDS011;943;51.568;6.998;2022-11-15T03:12:14;13.23;;;7.20;;
1885;SDS011;943;51.568;6.998;2022-11-15T03:16:02;12.13;;;7.20;;
1885;SDS011;943;51.568;6.998;2022-11-15T03:22:44;11.63;;;7.47;;
1885;SDS011;943;51.568;6.998;2022-11-15T03:25:37;9.00;;;6.80;;
1885;SDS011;943;51.568;6.998;2022-11-15T03:28:40;11.33;;;7.20;;
1885;SDS011;943;51.568;6.998;2022-11-15T03:31:51;12.67;;;7.43;;
1885;SDS011;943;51.568;6.998;2022-11-15T03:37:56;11.33;;;7.67;;
1885;SDS011;943;51.568;6.998;2022-11-15T03:41:30;12.07;;;7.83;;
1885;SDS011;943;51.568;6.998;2022-11-15T03:44:49;10.27;;;7.40;;
1885;SDS011;943;51.568;6.998;2022-11-15T03:48:27;9.67;;;7.33;;
1885;SDS011;943;51.568;6.998;2022-11-15T03:51:28;8.80;;;7.33;;
1885;SDS011;943;51.568;6.998;2022-11-15T03:54:16;10.10;;;7.40;;
1885;SDS011;943;51.568;6.998;2022-11-15T03:57:03;9.67;;;7.20;;
1885;SDS011;943;51.568;6.998;2022-11-15T03:59:49;7.70;;;6.57;;
1885;SDS011;943;51.568;6.998;2022-11-15T04:02:35;10.90;;;7.20;;
1885;SDS011;943;51.568;6.998;2022-11-15T04:05:21;8.33;;;6.97;;
1885;SDS011;943;51.568;6.998;2022-11-15T04:08:08;8.43;;;6.53;;
1885;SDS011;943;51.568;6.998;2022-11-15T04:10:54;11.30;;;6.90;;
1885;SDS011;943;51.568;6.998;2022-11-15T04:13:41;7.83;;;6.90;;
1885;SDS011;943;51.568;6.998;2022-11-15T04:16:27;9.53;;;6.93;;
1885;SDS011;943;51.568;6.998;2022-11-15T04:19:14;8.73;;;6.90;;
1885;SDS011;943;51.568;6.998;2022-11-15T04:22:19;10.10;;;7.07;;
1885;SDS011;943;51.568;6.998;2022-11-15T04:25:23;9.67;;;7.30;;
1885;SDS011;943;51.568;6.998;2022-11-15T04:28:16;10.30;;;6.30;;
1885;SDS011;943;51.568;6.998;2022-11-15T04:31:03;8.30;;;6.10;;
1885;SDS011;943;51.568;6.998;2022-11-15T04:33:49;11.80;;;6.60;;
1885;SDS011;943;51.568;6.998;2022-11-15T04:36:36;10.17;;;7.67;;
1885;SDS011;943;51.568;6.998;2022-11-15T04:39:42;8.83;;;6.40;;
1885;SDS011;943;51.568;6.998;2022-11-15T04:42:28;8.10;;;6.40;;
1885;SDS011;943;51.568;6.998;2022-11-15T04:45:15;8.10;;;5.70;;
1885;SDS011;943;51.568;6.998;2022-11-15T04:48:01;8.93;;;5.40;;
1885;SDS011;943;51.568;6.998;2022-11-15T04:50:48;8.13;;;5.93;;
1885;SDS011;943;51.568;6.998;2022-11-15T04:53:36;7.73;;;5.27;;
1885;SDS011;943;51.568;6.998;2022-11-15T04:56:24;8.07;;;5.60;;
1885;SDS011;943;51.568;6.998;2022-11-15T04:59:13;9.37;;;6.13;;
1885;SDS011;943;51.568;6.998;2022-11-15T05:01:59;7.80;;;5.70;;
1885;SDS011;943;51.568;6.998;2022-11-15T05:04:46;6.73;;;4.73;;
1885;SDS011;943;51.568;6.998;2022-11-15T05:07:32;7.97;;;6.00;;
1885;SDS011;943;51.568;6.998;2022-11-15T05:10:18;7.33;;;5.57;;
1885;SDS011;943;51.568;6.998;2022-11-15T05:13:04;7.33;;;5.53;;
1885;SDS011;943;51.568;6.998;2022-11-15T05:15:51;10.57;;;6.27;;
1885;SDS011;943;51.568;6.998;2022-11-15T05:18:37;9.43;;;5.77;;
1885;SDS011;943;51.568;6.998;2022-11-15T05:21:26;8.27;;;5.57;;
1885;SDS011;943;51.568;6.998;2022-11-15T05:24:13;8.20;;;5.80;;
1885;SDS011;943;51.568;6.998;2022-11-15T05:26:59;6.53;;;5.20;;
1885;SDS011;943;51.568;6.998;2022-11-15T05:29:46;6.13;;;5.17;;
1885;SDS011;943;51.568;6.998;2022-11-15T05:32:32;6.80;;;5.80;;
1885;SDS011;943;51.568;6.998;2022-11-15T05:35:20;6.73;;;5.50;;
1885;SDS011;943;51.568;6.998;2022-11-15T05:38:30;7.10;;;5.77;;
1885;SDS011;943;51.568;6.998;2022-11-15T05:41:19;6.30;;;4.83;;
1885;SDS011;943;51.568;6.998;2022-11-15T05:44:47;6.30;;;4.77;;
1885;SDS011;943;51.568;6.998;2022-11-15T05:47:34;7.73;;;4.90;;
1885;SDS011;943;51.568;6.998;2022-11-15T05:50:24;7.27;;;4.70;;
1885;SDS011;943;51.568;6.998;2022-11-15T05:53:11;6.13;;;4.77;;
1885;SDS011;943;51.568;6.998;2022-11-15T05:56:05;7.93;;;5.10;;
1885;SDS011;943;51.568;6.998;2022-11-15T05:58:56;7.43;;;5.07;;
1885;SDS011;943;51.568;6.998;2022-11-15T06:02:00;6.67;;;4.83;;
1885;SDS011;943;51.568;6.998;2022-11-15T06:04:47;7.00;;;5.13;;
1885;SDS011;943;51.568;6.998;2022-11-15T06:07:33;7.10;;;5.23;;
1885;SDS011;943;51.568;6.998;2022-11-15T06:10:19;7.77;;;5.83;;
1885;SDS011;943;51.568;6.998;2022-11-15T06:13:06;12.70;;;5.77;;
1885;SDS011;943;51.568;6.998;2022-11-15T06:15:55;8.33;;;6.10;;
1885;SDS011;943;51.568;6.998;2022-11-15T06:18:41;8.40;;;6.90;;
1885;SDS011;943;51.568;6.998;2022-11-15T06:21:28;7.70;;;6.90;;
1885;SDS011;943;51.568;6.998;2022-11-15T06:24:14;8.20;;;7.03;;
1885;SDS011;943;51.568;6.998;2022-11-15T06:27:00;10.70;;;7.23;;
1885;SDS011;943;51.568;6.998;2022-11-15T06:29:46;13.00;;;8.40;;
1885;SDS011;943;51.568;6.998;2022-11-15T06:32:32;9.10;;;7.33;;
1885;SDS011;943;51.568;6.998;2022-11-15T06:35:18;8.70;;;7.57;;
1885;SDS011;943;51.568;6.998;2022-11-15T06:38:06;9.10;;;7.20;;
1885;SDS011;943;51.568;6.998;2022-11-15T06:41:00;8.93;;;6.77;;
1885;SDS011;943;51.568;6.998;2022-11-15T06:43:50;8.70;;;6.87;;
1885;SDS011;943;51.568;6.998;2022-11-15T06:46:36;8.90;;;7.00;;
1885;SDS011;943;51.568;6.998;2022-11-15T06:49:23;7.83;;;5.87;;
1885;SDS011;943;51.568;6.998;2022-11-15T06:52:09;9.33;;;6.60;;
1885;SDS011;943;51.568;6.998;2022-11-15T06:54:55;7.27;;;5.73;;
1885;SDS011;943;51.568;6.998;2022-11-15T06:57:51;7.80;;;5.60;;
1885;SDS011;943;51.568;6.998;2022-11-15T07:00:38;8.37;;;5.67;;
1885;SDS011;943;51.568;6.998;2022-11-15T07:03:25;6.97;;;5.47;;
1885;SDS011;943;51.568;6.998;2022-11-15T07:06:12;6.87;;;5.10;;
1885;SDS011;943;51.568;6.998;2022-11-15T07:08:58;7.60;;;5.80;;
1885;SDS011;943;51.568;6.998;2022-11-15T07:11:44;6.57;;;4.83;;
1885;SDS011;943;51.568;6.998;2022-11-15T07:14:30;6.63;;;4.70;;
1885;SDS011;943;51.568;6.998;2022-11-15T07:17:16;4.57;;;3.80;;
1885;SDS011;943;51.568;6.998;2022-11-15T07:20:03;7.57;;;4.57;;
1885;SDS011;943;51.568;6.998;2022-11-15T07:22:50;9.30;;;4.10;;
1885;SDS011;943;51.568;6.998;2022-11-15T07:25:36;6.43;;;4.70;;
1885;SDS011;943;51.568;6.998;2022-11-15T07:28:23;7.40;;;4.40;;
1885;SDS011;943;51.568;6.998;2022-11-15T07:31:13;5.73;;;4.20;;
1885;SDS011;943;51.568;6.998;2022-11-15T07:33:59;6.07;;;4.00;;
1885;SDS011;943;51.568;6.998;2022-11-15T07:36:46;6.40;;;4.47;;
1885;SDS011;943;51.568;6.998;2022-11-15T07:39:33;5.23;;;4.23;;
1885;SDS011;943;51.568;6.998;2022-11-15T07:42:19;4.87;;;3.63;;
1885;SDS011;943;51.568;6.998;2022-11-15T07:45:24;6.13;;;3.97;;
1885;SDS011;943;51.568;6.998;2022-11-15T07:48:11;5.33;;;3.97;;
1885;SDS011;943;51.568;6.998;2022-11-15T07:50:57;3.63;;;2.63;;
1885;SDS011;943;51.568;6.998;2022-11-15T07:53:43;4.87;;;3.20;;
1885;SDS011;943;51.568;6.998;2022-11-15T07:56:29;5.23;;;3.40;;
1885;SDS011;943;51.568;6.998;2022-11-15T07:59:16;6.47;;;2.87;;
1885;SDS011;943;51.568;6.998;2022-11-15T08:02:02;4.90;;;2.77;;
1885;SDS011;943;51.568;6.998;2022-11-15T08:04:49;3.70;;;2.20;;
1885;SDS011;943;51.568;6.998;2022-11-15T08:07:35;4.00;;;2.40;;
1885;SDS011;943;51.568;6.998;2022-11-15T08:10:23;5.07;;;2.73;;
1885;SDS011;943;51.568;6.998;2022-11-15T08:13:11;4.50;;;2.90;;
1885;SDS011;943;51.568;6.998;2022-11-15T08:15:59;3.90;;;3.10;;
1885;SDS011;943;51.568;6.998;2022-11-15T08:18:50;4.23;;;2.73;;
1885;SDS011;943;51.568;6.998;2022-11-15T08:21:37;5.90;;;4.40;;
1885;SDS011;943;51.568;6.998;2022-11-15T08:24:23;4.57;;;3.50;;
1885;SDS011;943;51.568;6.998;2022-11-15T08:27:09;6.13;;;3.80;;
1885;SDS011;943;51.568;6.998;2022-11-15T08:30:01;6.70;;;2.90;;
1885;SDS011;943;51.568;6.998;2022-11-15T08:32:49;5.53;;;3.80;;
1885;SDS011;943;51.568;6.998;2022-11-15T08:35:40;4.50;;;3.20;;
1885;SDS011;943;51.568;6.998;2022-11-15T08:38:28;4.30;;;3.13;;
1885;SDS011;943;51.568;6.998;2022-11-15T08:41:23;4.70;;;3.07;;
1885;SDS011;943;51.568;6.998;2022-11-15T08:44:18;4.37;;;2.77;;
1885;SDS011;943;51.568;6.998;2022-11-15T08:47:04;3.20;;;1.70;;
1885;SDS011;943;51.568;6.998;2022-11-15T08:49:51;3.13;;;2.03;;
1885;SDS011;943;51.568;6.998;2022-11-15T08:52:37;4.50;;;2.90;;
1885;SDS011;943;51.568;6.998;2022-11-15T08:55:24;6.80;;;3.23;;
1885;SDS011;943;51.568;6.998;2022-11-15T08:58:10;3.60;;;2.40;;
1885;SDS011;943;51.568;6.998;2022-11-15T09:00:56;3.80;;;2.40;;
1885;SDS011;943;51.568;6.998;2022-11-15T09:03:45;5.20;;;1.93;;
1885;SDS011;943;51.568;6.998;2022-11-15T09:06:31;3.93;;;2.23;;
1885;SDS011;943;51.568;6.998;2022-11-15T09:09:18;3.33;;;1.80;;
1885;SDS011;943;51.568;6.998;2022-11-15T09:12:05;3.23;;;1.80;;
1885;SDS011;943;51.568;6.998;2022-11-15T09:14:52;11.43;;;2.80;;
1885;SDS011;943;51.568;6.998;2022-11-15T09:17:39;3.30;;;1.83;;
1885;SDS011;943;51.568;6.998;2022-11-15T09:20:26;3.40;;;1.97;;
1885;SDS011;943;51.568;6.998;2022-11-15T09:23:13;4.33;;;2.10;;
1885;SDS011;943;51.568;6.998;2022-11-15T09:26:00;5.60;;;3.27;;
1885;SDS011;943;51.568;6.998;2022-11-15T09:28:49;8.43;;;4.50;;
1885;SDS011;943;51.568;6.998;2022-11-15T09:31:35;5.67;;;2.70;;
1885;SDS011;943;51.568;6.998;2022-11-15T09:34:22;5.90;;;3.20;;
1885;SDS011;943;51.568;6.998;2022-11-15T09:37:08;4.23;;;2.50;;
1885;SDS011;943;51.568;6.998;2022-11-15T09:39:55;6.10;;;2.43;;
1885;SDS011;943;51.568;6.998;2022-11-15T09:42:51;6.27;;;3.53;;
1885;SDS011;943;51.568;6.998;2022-11-15T09:46:22;6.13;;;3.27;;
1885;SDS011;943;51.568;6.998;2022-11-15T09:50:11;4.97;;;3.60;;
1885;SDS011;943;51.568;6.998;2022-11-15T09:53:02;5.77;;;2.60;;
1885;SDS011;943;51.568;6.998;2022-11-15T09:55:33;3.43;;;2.07;;
1885;SDS011;943;51.568;6.998;2022-11-15T10:01:43;4.10;;;2.10;;
1885;SDS011;943;51.568;6.998;2022-11-15T10:04:58;4.53;;;2.20;;
1885;SDS011;943;51.568;6.998;2022-11-15T10:07:33;3.73;;;2.20;;
1885;SDS011;943;51.568;6.998;2022-11-15T10:10:47;4.87;;;2.80;;
1885;SDS011;943;51.568;6.998;2022-11-15T10:13:43;3.57;;;1.90;;
1885;SDS011;943;51.568;6.998;2022-11-15T10:25:39;3.83;;;1.70;;
1885;SDS011;943;51.568;6.998;2022-11-15T10:30:57;4.10;;;1.60;;
1885;SDS011;943;51.568;6.998;2022-11-15T10:33:34;4.47;;;2.23;;
1885;SDS011;943;51.568;6.998;2022-11-15T10:41:17;3.30;;;1.70;;
1885;SDS011;943;51.568;6.998;2022-11-15T10:49:57;6.10;;;1.67;;
1885;SDS011;943;51.568;6.998;2022-11-15T10:52:53;3.50;;;1.60;;
1885;SDS011;943;51.568;6.998;2022-11-15T10:55:24;3.90;;;2.00;;
1885;SDS011;943;51.568;6.998;2022-11-15T10:58:02;2.87;;;1.40;;
1885;SDS011;943;51.568;6.998;2022-11-15T11:01:13;3.87;;;2.33;;
1885;SDS011;943;51.568;6.998;2022-11-15T11:04:05;3.47;;;1.77;;
1885;SDS011;943;51.568;6.998;2022-11-15T11:06:46;3.80;;;1.80;;
1885;SDS011;943;51.568;6.998;2022-11-15T11:09:34;5.77;;;1.90;;
1885;SDS011;943;51.568;6.998;2022-11-15T11:12:11;6.20;;;3.17;;
1885;SDS011;943;51.568;6.998;2022-11-15T11:14:41;4.60;;;1.77;;
1885;SDS011;943;51.568;6.998;2022-11-15T11:23:06;3.30;;;1.33;;
1885;SDS011;943;51.568;6.998;2022-11-15T11:33:58;2.50;;;1.03;;
1885;SDS011;943;51.568;6.998;2022-11-15T11:37:10;2.50;;;1.20;;
1885;SDS011;943;51.568;6.998;2022-11-15T11:40:41;2.37;;;1.13;;
1885;SDS011;943;51.568;6.998;2022-11-15T11:43:30;4.23;;;1.47;;
1885;SDS011;943;51.568;6.998;2022-11-15T11:47:03;4.43;;;2.40;;
1885;SDS011;943;51.568;6.998;2022-11-15T11:53:02;2.83;;;1.50;;
1885;SDS011;943;51.568;6.998;2022-11-15T11:55:57;3.13;;;1.40;;
1885;SDS011;943;51.568;6.998;2022-11-15T11:58:53;2.80;;;1.40;;
1885;SDS011;943;51.568;6.998;2022-11-15T12:01:37;4.63;;;1.50;;
1885;SDS011;943;51.568;6.998;2022-11-15T12:16:02;4.13;;;1.10;;
1885;SDS011;943;51.568;6.998;2022-11-15T12:18:54;4.03;;;1.13;;
1885;SDS011;943;51.568;6.998;2022-11-15T12:31:40;2.60;;;0.97;;
1885;SDS011;943;51.568;6.998;2022-11-15T12:36:50;2.60;;;1.40;;
1885;SDS011;943;51.568;6.998;2022-11-15T12:39:19;3.10;;;1.37;;
1885;SDS011;943;51.568;6.998;2022-11-15T12:59:52;6.50;;;2.70;;
1885;SDS011;943;51.568;6.998;2022-11-15T13:03:19;3.17;;;1.30;;
1885;SDS011;943;51.568;6.998;2022-11-15T13:05:55;3.20;;;0.90;;
1885;SDS011;943;51.568;6.998;2022-11-15T13:08:48;3.63;;;1.30;;
1885;SDS011;943;51.568;6.998;2022-11-15T13:19:46;5.23;;;1.37;;
1885;SDS011;943;51.568;6.998;2022-11-15T13:22:41;7.30;;;1.53;;
1885;SDS011;943;51.568;6.998;2022-11-15T13:28:45;3.00;;;1.30;;
1885;SDS011;943;51.568;6.998;2022-11-15T13:31:25;3.70;;;1.30;;
1885;SDS011;943;51.568;6.998;2022-11-15T13:39:49;3.13;;;0.80;;
1885;SDS011;943;51.568;6.998;2022-11-15T13:42:17;3.40;;;1.00;;
1885;SDS011;943;51.568;6.998;2022-11-15T13:44:55;2.30;;;1.20;;
1885;SDS011;943;51.568;6.998;2022-11-15T13:47:31;3.77;;;1.00;;
1885;SDS011;943;51.568;6.998;2022-11-15T13:49:59;3.50;;;0.90;;
1885;SDS011;943;51.568;6.998;2022-11-15T13:52:31;7.07;;;1.10;;
1885;SDS011;943;51.568;6.998;2022-11-15T13:55:13;7.50;;;1.13;;
1885;SDS011;943;51.568;6.998;2022-11-15T13:57:51;3.47;;;0.90;;
1885;SDS011;943;51.568;6.998;2022-11-15T14:03:15;4.57;;;1.07;;
1885;SDS011;943;51.568;6.998;2022-11-15T14:06:05;4.90;;;1.07;;
1885;SDS011;943;51.568;6.998;2022-11-15T14:08:57;2.80;;;1.00;;
1885;SDS011;943;51.568;6.998;2022-11-15T14:11:28;3.57;;;1.37;;
1885;SDS011;943;51.568;6.998;2022-11-15T14:16:43;4.43;;;1.40;;
1885;SDS011;943;51.568;6.998;2022-11-15T14:19:39;6.20;;;1.30;;
1885;SDS011;943;51.568;6.998;2022-11-15T14:22:16;3.47;;;1.20;;
1885;SDS011;943;51.568;6.998;2022-11-15T14:25:06;4.17;;;1.50;;
1885;SDS011;943;51.568;6.998;2022-11-15T14:31:12;5.30;;;1.70;;
1885;SDS011;943;51.568;6.998;2022-11-15T14:33:40;7.63;;;2.70;;
1885;SDS011;943;51.568;6.998;2022-11-15T14:36:15;5.50;;;2.70;;
1885;SDS011;943;51.568;6.998;2022-11-15T14:38:47;4.43;;;2.43;;
1885;SDS011;943;51.568;6.998;2022-11-15T14:41:22;5.10;;;2.47;;
1885;SDS011;943;51.568;6.998;2022-11-15T14:44:00;6.80;;;2.60;;
1885;SDS011;943;51.568;6.998;2022-11-15T14:46:29;7.43;;;4.23;;
1885;SDS011;943;51.568;6.998;2022-11-15T14:48:57;4.57;;;2.87;;
1885;SDS011;943;51.568;6.998;2022-11-15T14:51:25;4.93;;;2.13;;
1885;SDS011;943;51.568;6.998;2022-11-15T14:53:54;4.40;;;2.97;;
1885;SDS011;943;51.568;6.998;2022-11-15T14:56:23;7.70;;;3.50;;
1885;SDS011;943;51.568;6.998;2022-11-15T14:58:54;4.37;;;2.60;;
1885;SDS011;943;51.568;6.998;2022-11-15T15:01:26;5.43;;;2.30;;
1885;SDS011;943;51.568;6.998;2022-11-15T15:03:55;7.30;;;2.00;;
1885;SDS011;943;51.568;6.998;2022-11-15T15:06:35;3.77;;;1.90;;
1885;SDS011;943;51.568;6.998;2022-11-15T15:09:05;4.00;;;2.10;;
1885;SDS011;943;51.568;6.998;2022-11-15T15:11:33;2.70;;;1.50;;
1885;SDS011;943;51.568;6.998;2022-11-15T15:14:02;3.47;;;1.40;;
1885;SDS011;943;51.568;6.998;2022-11-15T15:16:32;3.93;;;1.67;;
1885;SDS011;943;51.568;6.998;2022-11-15T15:19:01;5.70;;;2.10;;
1885;SDS011;943;51.568;6.998;2022-11-15T15:21:32;4.57;;;1.80;;
1885;SDS011;943;51.568;6.998;2022-11-15T15:24:03;4.20;;;2.30;;
1885;SDS011;943;51.568;6.998;2022-11-15T15:26:33;5.63;;;2.60;;
1885;SDS011;943;51.568;6.998;2022-11-15T15:29:03;8.70;;;5.77;;
1885;SDS011;943;51.568;6.998;2022-11-15T15:31:33;37.43;;;19.63;;
1885;SDS011;943;51.568;6.998;2022-11-15T15:34:04;17.13;;;9.40;;
1885;SDS011;943;51.568;6.998;2022-11-15T15:36:41;59.13;;;28.00;;
1885;SDS011;943;51.568;6.998;2022-11-15T15:39:10;13.43;;;8.83;;
1885;SDS011;943;51.568;6.998;2022-11-15T15:41:39;10.73;;;5.27;;
1885;SDS011;943;51.568;6.998;2022-11-15T15:44:08;13.40;;;3.93;;
1885;SDS011;943;51.568;6.998;2022-11-15T15:46:36;5.90;;;2.83;;
1885;SDS011;943;51.568;6.998;2022-11-15T15:49:03;4.93;;;3.53;;
1885;SDS011;943;51.568;6.998;2022-11-15T15:51:31;6.37;;;2.80;;
1885;SDS011;943;51.568;6.998;2022-11-15T15:54:03;5.47;;;2.87;;
1885;SDS011;943;51.568;6.998;2022-11-15T15:56:31;3.50;;;1.93;;
1885;SDS011;943;51.568;6.998;2022-11-15T15:58:59;4.90;;;2.70;;
1885;SDS011;943;51.568;6.998;2022-11-15T16:01:27;5.80;;;2.97;;
1885;SDS011;943;51.568;6.998;2022-11-15T16:03:54;9.00;;;3.43;;
1885;SDS011;943;51.568;6.998;2022-11-15T16:06:35;6.53;;;3.00;;
1885;SDS011;943;51.568;6.998;2022-11-15T16:09:08;4.00;;;2.80;;
1885;SDS011;943;51.568;6.998;2022-11-15T16:12:05;4.30;;;2.87;;
1885;SDS011;943;51.568;6.998;2022-11-15T16:14:33;7.57;;;4.00;;
1885;SDS011;943;51.568;6.998;2022-11-15T16:17:01;14.63;;;4.03;;
1885;SDS011;943;51.568;6.998;2022-11-15T16:19:29;7.10;;;3.23;;
1885;SDS011;943;51.568;6.998;2022-11-15T16:21:57;7.43;;;4.30;;
1885;SDS011;943;51.568;6.998;2022-11-15T16:24:25;5.53;;;3.30;;
1885;SDS011;943;51.568;6.998;2022-11-15T16:26:53;7.97;;;4.40;;
1885;SDS011;943;51.568;6.998;2022-11-15T16:29:20;9.30;;;4.10;;
1885;SDS011;943;51.568;6.998;2022-11-15T16:31:48;6.77;;;3.13;;
1885;SDS011;943;51.568;6.998;2022-11-15T16:34:16;5.50;;;2.90;;
1885;SDS011;943;51.568;6.998;2022-11-15T16:36:44;5.73;;;3.40;;
1885;SDS011;943;51.568;6.998;2022-11-15T16:39:11;5.90;;;3.07;;
1885;SDS011;943;51.568;6.998;2022-11-15T16:41:41;4.20;;;3.07;;
1885;SDS011;943;51.568;6.998;2022-11-15T16:44:13;6.93;;;3.50;;
1885;SDS011;943;51.568;6.998;2022-11-15T16:46:42;5.80;;;3.50;;
1885;SDS011;943;51.568;6.998;2022-11-15T16:49:13;5.73;;;3.00;;
1885;SDS011;943;51.568;6.998;2022-11-15T16:51:41;4.67;;;2.80;;
1885;SDS011;943;51.568;6.998;2022-11-15T16:54:13;7.00;;;2.90;;
1885;SDS011;943;51.568;6.998;2022-11-15T16:56:41;5.27;;;3.73;;
1885;SDS011;943;51.568;6.998;2022-11-15T16:59:13;6.43;;;2.83;;
1885;SDS011;943;51.568;6.998;2022-11-15T17:01:45;7.50;;;2.93;;
1885;SDS011;943;51.568;6.998;2022-11-15T17:04:16;7.17;;;5.60;;
1885;SDS011;943;51.568;6.998;2022-11-15T17:06:48;7.10;;;6.13;;
1885;SDS011;943;51.568;6.998;2022-11-15T17:09:18;10.90;;;7.67;;
1885;SDS011;943;51.568;6.998;2022-11-15T17:11:50;7.80;;;5.60;;
1885;SDS011;943;51.568;6.998;2022-11-15T17:14:19;6.00;;;4.23;;
1885;SDS011;943;51.568;6.998;2022-11-15T17:16:50;6.57;;;4.37;;
1885;SDS011;943;51.568;6.998;2022-11-15T17:19:18;9.80;;;7.70;;
1885;SDS011;943;51.568;6.998;2022-11-15T17:21:47;9.17;;;7.43;;
1885;SDS011;943;51.568;6.998;2022-11-15T17:24:15;10.90;;;5.03;;
1885;SDS011;943;51.568;6.998;2022-11-15T17:26:43;11.33;;;7.83;;
1885;SDS011;943;51.568;6.998;2022-11-15T17:29:10;7.67;;;6.13;;
1885;SDS011;943;51.568;6.998;2022-11-15T17:31:38;12.87;;;10.67;;
1885;SDS011;943;51.568;6.998;2022-11-15T17:34:06;8.70;;;6.60;;
1885;SDS011;943;51.568;6.998;2022-11-15T17:36:34;20.93;;;18.67;;
1885;SDS011;943;51.568;6.998;2022-11-15T17:39:02;17.40;;;15.60;;
1885;SDS011;943;51.568;6.998;2022-11-15T17:41:32;19.03;;;14.73;;
1885;SDS011;943;51.568;6.998;2022-11-15T17:44:00;15.37;;;9.83;;
1885;SDS011;943;51.568;6.998;2022-11-15T17:46:29;8.10;;;4.87;;
1885;SDS011;943;51.568;6.998;2022-11-15T17:48:58;7.80;;;3.40;;
1885;SDS011;943;51.568;6.998;2022-11-15T17:51:27;5.83;;;3.07;;
1885;SDS011;943;51.568;6.998;2022-11-15T17:53:55;4.70;;;2.80;;
1885;SDS011;943;51.568;6.998;2022-11-15T17:56:24;5.00;;;3.00;;
1885;SDS011;943;51.568;6.998;2022-11-15T17:58:59;5.20;;;3.43;;
1885;SDS011;943;51.568;6.998;2022-11-15T18:01:30;6.43;;;4.10;;
1885;SDS011;943;51.568;6.998;2022-11-15T18:04:04;4.57;;;3.27;;
1885;SDS011;943;51.568;6.998;2022-11-15T18:06:36;5.90;;;3.03;;
1885;SDS011;943;51.568;6.998;2022-11-15T18:09:06;3.47;;;2.43;;
1885;SDS011;943;51.568;6.998;2022-11-15T18:11:35;3.83;;;2.23;;
1885;SDS011;943;51.568;6.998;2022-11-15T18:14:12;4.23;;;3.00;;
1885;SDS011;943;51.568;6.998;2022-11-15T18:16:41;3.87;;;2.70;;
1885;SDS011;943;51.568;6.998;2022-11-15T18:19:11;3.60;;;2.57;;
1885;SDS011;943;51.568;6.998;2022-11-15T18:21:41;4.30;;;2.63;;
1885;SDS011;943;51.568;6.998;2022-11-15T18:24:25;3.87;;;2.80;;
1885;SDS011;943;51.568;6.998;2022-11-15T18:27:04;3.97;;;2.57;;
1885;SDS011;943;51.568;6.998;2022-11-15T18:29:33;3.47;;;2.40;;
1885;SDS011;943;51.568;6.998;2022-11-15T18:32:04;4.43;;;2.30;;
1885;SDS011;943;51.568;6.998;2022-11-15T18:34:37;3.13;;;2.33;;
1885;SDS011;943;51.568;6.998;2022-11-15T18:37:06;3.67;;;2.63;;
1885;SDS011;943;51.568;6.998;2022-11-15T18:39:34;4.67;;;3.10;;
1885;SDS011;943;51.568;6.998;2022-11-15T18:42:03;3.73;;;2.13;;
1885;SDS011;943;51.568;6.998;2022-11-15T18:44:32;5.73;;;3.07;;
1885;SDS011;943;51.568;6.998;2022-11-15T18:47:00;5.57;;;3.03;;
1885;SDS011;943;51.568;6.998;2022-11-15T18:49:28;5.30;;;3.10;;
1885;SDS011;943;51.568;6.998;2022-11-15T18:51:58;4.40;;;3.03;;
1885;SDS011;943;51.568;6.998;2022-11-15T18:54:26;5.13;;;3.03;;
1885;SDS011;943;51.568;6.998;2022-11-15T18:56:57;4.30;;;2.57;;
1885;SDS011;943;51.568;6.998;2022-11-15T18:59:25;4.00;;;2.60;;
1885;SDS011;943;51.568;6.998;2022-11-15T19:01:53;5.40;;;3.10;;
1885;SDS011;943;51.568;6.998;2022-11-15T19:04:22;3.33;;;2.60;;
1885;SDS011;943;51.568;6.998;2022-11-15T19:06:50;3.30;;;1.97;;
1885;SDS011;943;51.568;6.998;2022-11-15T19:09:23;4.23;;;2.67;;
1885;SDS011;943;51.568;6.998;2022-11-15T19:11:58;3.80;;;2.30;;
1885;SDS011;943;51.568;6.998;2022-11-15T19:14:26;5.33;;;2.43;;
1885;SDS011;943;51.568;6.998;2022-11-15T19:16:54;4.40;;;2.33;;
1885;SDS011;943;51.568;6.998;2022-11-15T19:19:23;5.20;;;2.80;;
1885;SDS011;943;51.568;6.998;2022-11-15T19:21:53;4.00;;;2.50;;
1885;SDS011;943;51.568;6.998;2022-11-15T19:24:25;5.00;;;3.00;;
1885;SDS011;943;51.568;6.998;2022-11-15T19:26:53;5.87;;;3.70;;
1885;SDS011;943;51.568;6.998;2022-11-15T19:29:20;4.60;;;3.50;;
1885;SDS011;943;51.568;6.998;2022-11-15T19:31:51;4.60;;;2.90;;
1885;SDS011;943;51.568;6.998;2022-11-15T19:34:19;5.23;;;3.03;;